Time;durP1;ratioP1;P1;durP2;ratioP2;P2;SDS_P1;SDS_P2;PMS_P1;PMS_P2;Temp;Humidity;BMP_temperature;BMP_pressure;BME280_temperature;BME280_humidity;BME280_pressure;Samples;Min_cycle;Max_cycle;Signal;HPM_P1;HPM_P2
2022/07/10 00:01:42;;;;;;;3.28;1.00;;;;;;;20.84;44.20;99893.13;7765746;32;40007;-75
2022/07/10 00:05:58;;;;;;;2.00;1.12;;;;;;;20.97;44.12;99892.03;7765525;32;37982;-75
2022/07/10 00:10:14;;;;;;;2.15;1.50;;;;;;;20.77;44.97;99881.78;7765481;32;36874;-74
2022/07/10 00:14:30;;;;;;;2.70;1.27;;;;;;;20.82;45.06;99884.34;7765777;32;40018;-74
2022/07/10 00:18:48;;;;;;;2.08;1.23;;;;;;;20.67;45.96;99882.19;7753431;32;40103;-75
2022/07/10 00:23:04;;;;;;;4.82;1.35;;;;;;;20.51;46.64;99882.75;7738231;32;38020;-76
2022/07/10 00:27:20;;;;;;;1.35;1.25;;;;;;;20.23;47.66;99868.56;7738415;32;37296;-75
2022/07/10 00:31:36;;;;;;;3.35;1.30;;;;;;;20.47;46.98;99867.94;7738222;32;39462;-73
2022/07/10 00:35:52;;;;;;;1.15;1.05;;;;;;;20.10;48.31;99858.59;7738228;32;39923;-74
2022/07/10 00:40:09;;;;;;;1.52;1.42;;;;;;;19.66;49.87;99867.03;7737883;32;37801;-75
2022/07/10 00:44:25;;;;;;;1.55;1.27;;;;;;;19.38;50.92;99856.37;7738196;32;37244;-75
2022/07/10 00:48:41;;;;;;;1.80;1.30;;;;;;;19.70;49.99;99851.41;7747042;32;40082;-75
2022/07/10 00:52:57;;;;;;;2.20;1.40;;;;;;;19.27;51.90;99850.41;7764978;32;39970;-74
2022/07/10 00:57:16;;;;;;;1.75;1.30;;;;;;;19.41;51.69;99844.66;7763468;32;37942;-74
2022/07/10 01:01:33;;;;;;;1.25;1.10;;;;;;;19.78;50.80;99855.31;7765025;32;37779;-74
2022/07/10 01:05:49;;;;;;;1.35;1.25;;;;;;;19.54;51.37;99844.78;7764950;32;39242;-74
2022/07/10 01:10:06;;;;;;;2.05;1.48;;;;;;;20.11;50.11;99847.19;7764813;32;40665;-75
2022/07/10 01:14:22;;;;;;;1.75;1.12;;;;;;;19.26;52.86;99856.25;7763933;32;37875;-71
2022/07/10 01:18:39;;;;;;;2.00;1.17;;;;;;;18.85;54.41;99860.38;7759829;32;38094;-74
2022/07/10 01:22:56;;;;;;;2.83;1.42;;;;;;;19.28;53.11;99857.56;7737549;32;40129;-75
2022/07/10 01:27:12;;;;;;;1.37;1.10;;;;;;;19.25;53.18;99846.34;7737540;32;40969;-75
2022/07/10 01:31:28;;;;;;;1.90;1.27;;;;;;;18.91;53.93;99851.59;7737313;32;38709;-76
2022/07/10 01:35:44;;;;;;;4.43;1.30;;;;;;;19.07;53.21;99842.81;7737401;32;37036;-74
2022/07/10 01:40:00;;;;;;;2.03;1.05;;;;;;;18.90;53.59;99840.87;7736093;32;39250;-74
2022/07/10 01:44:17;;;;;;;1.20;1.10;;;;;;;19.08;52.91;99833.37;7737161;32;39851;-74
2022/07/10 01:48:33;;;;;;;1.17;1.08;;;;;;;18.87;53.52;99824.97;7746201;32;37995;-74
2022/07/10 01:52:49;;;;;;;1.90;1.40;;;;;;;18.80;54.10;99819.06;7765214;32;38564;-75
2022/07/10 01:57:05;;;;;;;1.75;1.30;;;;;;;18.54;54.77;99822.66;7767118;32;40141;-74
2022/07/10 02:01:21;;;;;;;2.37;1.40;;;;;;;18.69;54.39;99815.84;7765955;32;39652;-75
2022/07/10 02:05:37;;;;;;;1.95;1.40;;;;;;;18.79;54.13;99823.78;7767148;32;37889;-76
2022/07/10 02:09:54;;;;;;;2.12;1.40;;;;;;;18.45;55.61;99824.59;7765734;32;37067;-74
2022/07/10 02:14:10;;;;;;;1.40;1.30;;;;;;;18.45;55.99;99819.88;7766919;32;39375;-74
2022/07/10 02:18:26;;;;;;;1.85;1.42;;;;;;;18.51;55.57;99823.31;7739477;32;40703;-75
2022/07/10 02:22:42;;;;;;;1.70;1.48;;;;;;;18.63;55.36;99829.00;7736668;32;37844;-74
2022/07/10 02:26:58;;;;;;;1.40;1.30;;;;;;;18.64;55.76;99825.09;7739198;32;37758;-74
2022/07/10 02:31:14;;;;;;;1.67;1.50;;;;;;;18.69;55.64;99819.41;7739762;32;39228;-74
2022/07/10 02:35:31;;;;;;;3.83;1.60;;;;;;;18.36;57.50;99828.16;7739742;32;40158;-75
2022/07/10 02:39:47;;;;;;;3.17;1.60;;;;;;;18.46;57.25;99827.03;7739485;32;38683;-76
2022/07/10 02:44:04;;;;;;;2.83;1.67;;;;;;;18.54;56.87;99828.16;7739623;32;37383;-76
2022/07/10 02:48:20;;;;;;;1.65;1.55;;;;;;;18.50;57.19;99832.72;7739601;32;39299;-76
2022/07/10 02:52:36;;;;;;;3.10;1.52;;;;;;;18.54;57.15;99833.69;7739442;32;40833;-75
2022/07/10 02:56:52;;;;;;;2.10;1.73;;;;;;;18.72;56.26;99832.56;7739500;32;38621;-75
2022/07/10 03:01:08;;;;;;;2.37;2.00;;;;;;;18.63;56.65;99826.25;7739491;32;37212;-75
2022/07/10 03:05:24;;;;;;;2.20;1.70;;;;;;;18.46;57.24;99816.00;7739365;32;39262;-74
2022/07/10 03:09:40;;;;;;;2.50;1.70;;;;;;;18.61;56.74;99813.88;7739283;32;40015;-74
2022/07/10 03:13:57;;;;;;;2.28;1.65;;;;;;;18.68;56.38;99811.44;7739298;32;37840;-74
2022/07/10 03:18:13;;;;;;;2.78;2.00;;;;;;;18.70;56.26;99810.00;7739236;32;37084;-75
2022/07/10 03:22:30;;;;;;;1.50;1.40;;;;;;;18.68;56.27;99812.28;7738824;32;39388;-75
2022/07/10 03:26:46;;;;;;;2.97;1.62;;;;;;;18.66;56.42;99806.28;7739116;32;40856;-75
2022/07/10 03:31:03;;;;;;;1.87;1.67;;;;;;;18.79;55.77;99806.41;7738907;32;37814;-74
2022/07/10 03:35:19;;;;;;;3.12;1.70;;;;;;;18.77;55.59;99809.50;7739048;32;37136;-75
2022/07/10 03:39:36;;;;;;;2.15;1.65;;;;;;;18.97;55.02;99796.97;7739022;32;38974;-75
2022/07/10 03:43:52;;;;;;;2.12;1.65;;;;;;;18.77;55.81;99798.47;7738893;32;40131;-75
2022/07/10 03:48:08;;;;;;;3.33;1.80;;;;;;;18.71;55.89;99792.31;7738976;32;37952;-76
2022/07/10 03:52:24;;;;;;;2.58;1.50;;;;;;;18.85;55.50;99794.06;7738707;32;37869;-75
2022/07/10 04:01:15;;;;;;;2.03;1.83;;;;;;;18.82;55.87;99772.63;7738728;32;40783;-75
2022/07/10 04:05:31;;;;;;;2.45;1.70;;;;;;;18.84;55.91;99773.94;7738520;32;38824;-75
2022/07/10 04:09:47;;;;;;;3.08;1.50;;;;;;;18.64;56.62;99775.38;7738624;32;37967;-75
2022/07/10 04:14:04;;;;;;;3.33;2.03;;;;;;;18.64;56.73;99774.59;7738071;32;39374;-75
2022/07/10 04:18:20;;;;;;;2.20;1.70;;;;;;;18.75;56.31;99773.94;7738518;32;40024;-74
2022/07/10 04:22:36;;;;;;;3.15;1.70;;;;;;;18.79;56.25;99779.59;7737084;32;37821;-73
2022/07/10 04:26:53;;;;;;;2.75;1.55;;;;;;;18.78;56.27;99772.44;7738420;32;37153;-74
2022/07/10 04:31:09;;;;;;;2.35;1.80;;;;;;;18.86;55.95;99762.56;7738304;32;39356;-73
2022/07/10 04:35:25;;;;;;;3.60;1.70;;;;;;;19.02;55.47;99773.91;7738570;32;40683;-73
2022/07/10 04:39:42;;;;;;;2.30;1.73;;;;;;;18.84;56.09;99767.63;7738197;32;38319;-75
2022/07/10 04:43:58;;;;;;;2.47;1.70;;;;;;;19.10;55.44;99773.06;7738319;32;37179;-74
2022/07/10 04:48:14;;;;;;;2.70;2.08;;;;;;;19.00;55.81;99771.47;7738146;32;39289;-73
2022/07/10 04:52:30;;;;;;;3.10;1.80;;;;;;;18.83;56.47;99769.53;7738056;32;40749;-73
2022/07/10 04:56:46;;;;;;;1.73;1.62;;;;;;;19.06;55.36;99775.69;7738062;32;37810;-73
2022/07/10 05:01:02;;;;;;;2.42;1.75;;;;;;;19.29;54.71;99758.88;7738059;32;37752;-74
2022/07/10 05:05:19;;;;;;;2.75;1.90;;;;;;;18.95;55.96;99749.53;7737936;32;39380;-73
2022/07/10 05:09:35;;;;;;;2.78;1.75;;;;;;;19.12;55.14;99755.00;7737804;32;39941;-73
2022/07/10 05:13:51;;;;;;;4.10;2.12;;;;;;;19.29;55.12;99773.50;7737683;32;38684;-74
2022/07/10 05:18:07;;;;;;;2.40;1.90;;;;;;;19.14;54.99;99769.34;7736555;32;37824;-74
2022/07/10 05:22:24;;;;;;;2.85;1.90;;;;;;;19.10;55.34;99768.34;7737600;32;39966;-72
2022/07/10 05:26:40;;;;;;;2.35;1.90;;;;;;;19.04;54.99;99758.63;7736337;32;40788;-73
2022/07/10 05:30:56;;;;;;;5.07;2.35;;;;;;;19.01;55.57;99766.78;7737448;32;37968;-76
2022/07/10 05:35:16;;;;;;;3.15;2.20;;;;;;;18.65;56.82;99768.75;7737439;32;37457;-74
2022/07/10 05:39:32;;;;;;;3.25;1.92;;;;;;;19.28;54.98;99762.75;7751131;32;40114;-75
2022/07/10 05:43:49;;;;;;;4.37;2.20;;;;;;;19.37;55.06;99758.03;7754386;32;39999;-74
2022/07/10 05:48:05;;;;;;;3.22;2.22;;;;;;;19.06;56.33;99750.81;7761244;32;37992;-75
2022/07/10 05:52:21;;;;;;;4.07;2.60;;;;;;;19.25;55.50;99747.66;7754427;32;36817;-80
2022/07/10 05:56:37;;;;;;;3.78;2.40;;;;;;;18.93;56.89;99757.34;7746042;32;39016;-80
2022/07/10 06:00:53;;;;;;;6.00;2.30;;;;;;;19.39;54.86;99741.91;7746377;32;40498;-80
2022/07/10 06:05:09;;;;;;;5.65;2.28;;;;;;;19.52;54.36;99740.06;7738712;32;38645;-77
2022/07/10 06:09:26;;;;;;;2.12;1.73;;;;;;;19.79;53.48;99741.56;7762622;32;37108;-76
2022/07/10 06:13:42;;;;;;;3.17;2.00;;;;;;;20.05;52.23;99733.09;7763682;32;40073;-76
2022/07/10 06:17:58;;;;;;;3.90;2.00;;;;;;;20.36;52.29;99717.22;7762627;32;40932;-76
2022/07/10 06:22:33;;;;;;;4.30;2.22;;;;;;;20.45;51.76;99717.94;7736276;32;38889;-76
2022/07/10 06:26:49;;;;;;;6.00;2.30;;;;;;;19.62;53.64;99725.06;7747556;32;36828;-76
2022/07/10 06:31:05;;;;;;;8.02;3.45;;;;;;;20.18;52.66;99708.25;7749475;32;38992;-75
2022/07/10 06:35:22;;;;;;;5.57;2.53;;;;;;;20.05;52.86;99729.53;7735429;32;40091;-75
2022/07/10 06:39:38;;;;;;;4.85;2.50;;;;;;;19.43;53.71;99742.87;7738428;32;38673;-77
2022/07/10 06:43:54;;;;;;;3.87;2.60;;;;;;;19.26;53.92;99740.97;7737076;32;37106;-75
2022/07/10 06:48:10;;;;;;;8.20;3.55;;;;;;;19.29;54.06;99734.00;7737807;32;39280;-75
2022/07/10 06:52:27;;;;;;;9.90;3.62;;;;;;;19.99;52.28;99734.44;7738832;32;39882;-75
2022/07/10 06:56:43;;;;;;;11.48;5.93;;;;;;;20.29;51.15;99736.34;7749066;32;37952;-77
2022/07/10 07:00:59;;;;;;;6.43;3.60;;;;;;;20.63;49.81;99726.94;7753912;32;38262;-75
2022/07/10 07:05:15;;;;;;;4.72;2.62;;;;;;;20.45;49.68;99731.78;7766122;32;37641;-76
2022/07/10 07:09:31;;;;;;;2.25;2.03;;;;;;;20.96;48.34;99718.59;7746529;32;40038;-77
2022/07/10 07:13:47;;;;;;;3.83;2.30;;;;;;;21.59;45.13;99716.69;7753810;32;38412;-77
2022/07/10 07:18:15;;;;;;;3.17;2.03;;;;;;;21.59;44.03;99716.69;7766164;32;36833;-77
2022/07/10 07:27:06;;;;;;;4.72;1.80;;;;;;;22.30;42.57;99707.78;7766021;32;40725;-76
2022/07/10 07:31:22;;;;;;;5.00;2.70;;;;;;;22.76;41.67;99701.91;7765821;32;37829;-76
2022/07/10 07:35:39;;;;;;;9.88;3.50;;;;;;;22.91;40.81;99702.28;7767395;32;37888;-76
2022/07/10 07:39:55;;;;;;;7.25;3.08;;;;;;;23.36;39.44;99701.84;7765945;32;39224;-77
2022/07/10 07:44:12;;;;;;;3.83;2.25;;;;;;;23.36;38.36;99698.28;7765828;32;40088;-77
2022/07/10 07:48:28;;;;;;;3.47;1.92;;;;;;;22.97;38.59;99693.31;7765014;32;38031;-77
2022/07/10 07:52:45;;;;;;;2.92;1.60;;;;;;;23.44;36.58;99697.28;7765695;32;37997;-75
2022/07/10 07:57:01;;;;;;;3.78;2.00;;;;;;;23.40;36.09;99688.03;7765680;32;39819;-77
2022/07/10 08:01:19;;;;;;;2.37;1.60;;;;;;;23.52;36.45;99687.91;7764648;32;39615;-77
2022/07/10 08:05:35;;;;;;;6.18;1.75;;;;;;;23.92;34.95;99695.22;7755023;32;37573;-77
2022/07/10 08:09:51;;;;;;;5.22;1.90;;;;;;;23.99;35.63;99689.00;7765616;32;37598;-77
2022/07/10 08:14:07;;;;;;;3.53;1.70;;;;;;;23.99;34.86;99702.91;7765408;32;38962;-76
2022/07/10 08:18:23;;;;;;;2.95;1.60;;;;;;;24.35;34.41;99692.53;7742430;32;39763;-77
2022/07/10 08:22:41;;;;;;;2.17;1.20;;;;;;;24.61;33.33;99685.47;7738098;32;38534;-75
2022/07/10 08:26:57;;;;;;;5.03;1.48;;;;;;;24.91;33.93;99691.22;7738346;32;38059;-77
2022/07/10 08:31:13;;;;;;;3.97;1.98;;;;;;;25.35;33.38;99685.19;7747206;32;39369;-78
2022/07/10 08:35:31;;;;;;;3.10;1.10;;;;;;;25.48;31.07;99683.03;7764020;32;40922;-75
2022/07/10 08:39:47;;;;;;;1.12;0.98;;;;;;;25.10;30.92;99682.78;7765355;32;37551;-76
2022/07/10 08:44:03;;;;;;;0.85;0.85;;;;;;;24.67;30.56;99675.66;7765299;32;37621;-75
2022/07/10 08:48:24;;;;;;;1.23;0.80;;;;;;;25.18;31.10;99674.53;7739603;32;40529;-75
2022/07/10 08:52:55;;;;;;;2.95;1.20;;;;;;;25.91;31.21;99680.84;7743004;32;40227;-75
2022/07/10 08:57:12;;;;;;;1.50;1.12;;;;;;;25.37;31.65;99671.69;7760125;32;38487;-75
2022/07/10 09:01:28;;;;;;;1.65;1.15;;;;;;;24.31;33.27;99684.09;7738150;32;37043;-75
2022/07/10 09:05:45;;;;;;;4.35;1.33;;;;;;;24.84;32.50;99679.94;7736761;32;40051;-76
2022/07/10 09:10:07;;;;;;;5.28;1.37;;;;;;;25.35;32.20;99662.88;7738285;32;37708;-75
2022/07/10 09:14:27;;;;;;;1.33;1.23;;;;;;;24.62;33.35;99667.59;7737706;32;37579;-75
2022/07/10 09:18:51;;;;;;;1.60;1.30;;;;;;;24.10;34.49;99672.53;7737806;32;37070;-75
2022/07/10 09:23:18;;;;;;;1.75;1.10;;;;;;;24.88;33.45;99672.44;7737502;32;40205;-76
2022/07/10 09:27:50;;;;;;;2.85;1.15;;;;;;;24.93;32.55;99659.00;7747667;32;40923;-76
2022/07/10 09:32:07;;;;;;;1.58;1.00;;;;;;;25.16;31.92;99652.59;7764725;32;35832;-75
2022/07/10 09:36:25;;;;;;;1.83;0.85;;;;;;;25.83;30.49;99646.41;7749563;32;36872;-76
2022/07/10 09:40:42;;;;;;;3.92;1.45;;;;;;;25.74;29.73;99657.06;7737280;32;39276;-76
2022/07/10 09:45:17;;;;;;;7.60;1.20;;;;;;;25.21;31.72;99646.69;7737138;32;39965;-76
2022/07/10 09:49:33;;;;;;;3.42;1.02;;;;;;;25.36;31.39;99646.97;7736926;32;37962;-76
2022/07/10 09:53:49;;;;;;;0.70;0.70;;;;;;;26.17;29.88;99640.09;7735887;32;37460;-77
2022/07/10 09:58:07;;;;;;;1.37;1.00;;;;;;;25.63;30.23;99629.03;7737097;32;39892;-79
2022/07/10 10:02:23;;;;;;;1.02;0.93;;;;;;;25.82;29.93;99619.69;7737406;32;39872;-79
2022/07/10 10:06:41;;;;;;;1.52;0.90;;;;;;;25.95;29.23;99630.66;7736622;32;38054;-81
2022/07/10 10:10:59;;;;;;;1.10;0.98;;;;;;;26.00;28.72;99635.91;7736650;32;36827;-79
2022/07/10 10:15:16;;;;;;;4.85;1.17;;;;;;;25.15;30.34;99636.22;7739770;32;40083;-78
2022/07/10 10:24:07;;;;;;;2.80;1.00;;;;;;;24.67;30.18;99629.06;7728208;32;37590;-81
2022/07/10 10:28:25;;;;;;;0.70;0.70;;;;;;;25.64;29.78;99618.66;7745799;32;37562;-77
2022/07/10 10:32:41;;;;;;;1.15;0.90;;;;;;;26.11;28.25;99605.28;7766630;32;39848;-78
2022/07/10 10:36:58;;;;;;;1.62;0.90;;;;;;;25.85;28.27;99607.78;7766774;32;39788;-79
2022/07/10 10:41:23;;;;;;;3.58;0.98;;;;;;;26.66;27.46;99605.50;7766357;32;36069;-80
2022/07/10 10:45:39;;;;;;;5.30;0.90;;;;;;;25.93;27.94;99605.06;7739864;32;36749;-80
2022/07/10 10:49:58;;;;;;;2.78;0.90;;;;;;;25.31;27.28;99606.22;7743407;32;39827;-72
2022/07/10 10:54:14;;;;;;;1.40;1.10;;;;;;;25.07;27.44;99615.78;7769899;32;40329;-79
2022/07/10 10:58:39;;;;;;;2.50;1.10;;;;;;;25.15;27.78;99613.91;7764743;32;37970;-78
2022/07/10 11:03:17;;;;;;;1.02;0.93;;;;;;;25.59;28.01;99610.59;7760401;32;37065;-79
2022/07/10 11:07:56;;;;;;;1.02;0.90;;;;;;;25.22;28.16;99608.47;7762427;32;38959;-77
2022/07/10 11:12:12;;;;;;;3.12;1.00;;;;;;;25.10;27.99;99613.06;7739359;32;40039;-81
2022/07/10 11:16:32;;;;;;;6.85;1.05;;;;;;;24.67;28.92;99623.50;7739047;32;38822;-78
2022/07/10 11:20:50;;;;;;;4.87;1.40;;;;;;;24.18;31.91;99677.06;7739201;32;37411;-78
2022/07/10 11:25:24;;;;;;;7.25;1.30;;;;;;;23.52;38.97;99706.59;7738100;32;40144;-78
2022/07/10 11:29:40;;;;;;;2.42;1.30;;;;;;;23.13;44.13;99693.34;7738717;32;39978;-79
2022/07/10 11:34:00;;;;;;;3.12;1.25;;;;;;;22.86;47.71;99672.78;7748828;32;38632;-77
2022/07/10 11:38:32;;;;;;;2.15;1.10;;;;;;;23.08;47.08;99667.78;7748578;32;37099;-76
2022/07/10 11:42:55;;;;;;;2.97;1.50;;;;;;;23.23;48.51;99673.34;7765924;32;39365;-77
2022/07/10 11:47:11;;;;;;;1.60;1.27;;;;;;;23.90;48.73;99655.00;7765904;32;39973;-76
2022/07/10 11:51:29;;;;;;;3.03;1.23;;;;;;;24.05;45.29;99647.75;7750126;32;38057;-76
2022/07/10 11:55:47;;;;;;;2.00;1.10;;;;;;;24.22;40.55;99652.88;7738679;32;37101;-73
2022/07/10 12:00:03;;;;;;;1.90;1.05;;;;;;;24.22;38.26;99647.31;7743869;32;38405;-78
2022/07/10 12:04:24;;;;;;;2.22;1.02;;;;;;;24.19;37.97;99648.03;7765650;32;39988;-76
2022/07/10 12:08:47;;;;;;;0.85;0.82;;;;;;;24.31;38.14;99641.50;7752737;32;38730;-79
2022/07/10 12:13:08;;;;;;;1.48;1.10;;;;;;;24.73;36.46;99632.34;7750843;32;36993;-81
2022/07/10 12:17:24;;;;;;;7.00;1.50;;;;;;;24.89;32.70;99627.47;7749725;32;39277;-79
2022/07/10 12:21:45;;;;;;;2.35;1.25;;;;;;;25.36;31.86;99624.66;7746050;32;40758;-78
2022/07/10 12:26:03;;;;;;;2.90;1.42;;;;;;;25.31;30.45;99622.97;7763087;32;39537;-80
2022/07/10 12:30:19;;;;;;;2.53;1.05;;;;;;;25.78;31.49;99618.84;7737314;32;36116;-77
2022/07/10 12:34:36;;;;;;;1.70;1.00;;;;;;;25.99;29.42;99604.37;7749993;32;39426;-81
2022/07/10 12:39:00;;;;;;;1.92;1.20;;;;;;;25.70;28.46;99616.31;7738271;32;39869;-78
2022/07/10 12:43:27;;;;;;;4.15;1.30;;;;;;;26.07;29.12;99612.84;7736872;32;38634;-78
2022/07/10 12:47:48;;;;;;;3.62;1.10;;;;;;;25.97;28.38;99619.91;7764108;32;37269;-79
2022/07/10 12:52:04;;;;;;;2.35;1.10;;;;;;;25.47;28.21;99626.41;7765393;32;39144;-79
2022/07/10 12:56:30;;;;;;;3.25;1.02;;;;;;;25.17;31.19;99631.09;7739817;32;39996;-79
2022/07/10 13:00:49;;;;;;;3.17;1.02;;;;;;;25.52;31.30;99621.69;7738090;32;38834;-79
2022/07/10 13:05:06;;;;;;;2.50;0.95;;;;;;;25.23;30.30;99632.38;7738039;32;37893;-78
2022/07/10 13:09:26;;;;;;;3.53;1.25;;;;;;;25.27;30.07;99624.91;7737927;32;40148;-82
2022/07/10 13:13:42;;;;;;;3.22;1.15;;;;;;;25.71;28.74;99634.69;7737913;32;40004;-79
2022/07/10 13:17:58;;;;;;;2.08;1.10;;;;;;;25.04;28.66;99625.72;7737326;32;37964;-80
2022/07/10 13:22:14;;;;;;;4.07;1.15;;;;;;;25.73;27.00;99624.75;7729915;32;242352;-78
2022/07/10 13:26:31;;;;;;;2.72;1.10;;;;;;;24.93;28.28;99619.16;7738204;32;39276;-78
2022/07/10 13:30:47;;;;;;;1.73;0.80;;;;;;;25.10;25.85;99618.63;7737575;32;40611;-80
2022/07/10 13:35:04;;;;;;;2.75;0.82;;;;;;;25.37;26.21;99627.06;7736487;32;38553;-78
2022/07/10 13:39:20;;;;;;;3.08;1.00;;;;;;;25.59;25.84;99632.94;7764384;32;37889;-78
2022/07/10 13:43:36;;;;;;;3.78;0.90;;;;;;;26.31;23.88;99617.09;7764324;32;40023;-79
2022/07/10 13:47:56;;;;;;;1.30;0.77;;;;;;;26.85;23.08;99612.06;7762887;32;40752;-78
2022/07/10 13:52:12;;;;;;;4.75;0.90;;;;;;;27.03;22.58;99606.59;7744248;32;38816;-77
2022/07/10 13:56:29;;;;;;;3.10;0.90;;;;;;;26.11;22.99;99603.28;7736845;32;37058;-85
2022/07/10 14:00:45;;;;;;;2.45;1.10;;;;;;;25.37;24.20;99606.69;7736811;32;40158;-77
2022/07/10 14:05:01;;;;;;;2.20;0.60;;;;;;;25.24;24.48;99606.91;7736542;32;40499;-76
2022/07/10 14:09:18;;;;;;;2.75;0.95;;;;;;;25.44;23.54;99621.59;7737117;32;37618;-75
2022/07/10 14:13:35;;;;;;;3.20;0.88;;;;;;;24.91;23.17;99615.94;7736435;32;37342;-76
2022/07/10 14:17:51;;;;;;;1.55;0.60;;;;;;;25.40;22.34;99605.97;7735338;32;39491;-76
2022/07/10 14:22:08;;;;;;;2.42;0.68;;;;;;;24.96;22.28;99612.84;7736137;32;40582;-76
2022/07/10 14:26:25;;;;;;;1.42;0.62;;;;;;;25.24;21.87;99618.06;7736070;32;38622;-76
2022/07/10 14:30:42;;;;;;;2.72;0.75;;;;;;;25.33;21.48;99609.44;7747025;32;37048;-78
2022/07/10 14:35:05;;;;;;;2.80;0.80;;;;;;;25.67;21.28;99612.31;7743136;32;39511;-78
2022/07/10 14:39:21;;;;;;;1.85;0.82;;;;;;;25.61;21.37;99613.81;7762896;32;39949;-77
2022/07/10 14:43:37;;;;;;;7.68;1.02;;;;;;;25.09;22.12;99625.41;7762654;32;37576;-78
2022/07/10 14:47:55;;;;;;;2.17;0.60;;;;;;;24.96;22.12;99624.00;7750083;32;37817;-77
2022/07/10 14:52:13;;;;;;;7.00;1.10;;;;;;;25.78;22.09;99618.84;7735439;32;39384;-78
2022/07/10 14:56:29;;;;;;;1.83;0.70;;;;;;;25.53;21.95;99612.94;7735319;32;40016;-78
2022/07/10 15:00:45;;;;;;;1.75;0.57;;;;;;;25.92;22.31;99625.78;7738623;32;38706;-78
2022/07/10 15:05:02;;;;;;;3.28;0.70;;;;;;;25.92;20.83;99634.97;7739405;32;37896;-80
2022/07/10 15:09:18;;;;;;;4.22;0.75;;;;;;;26.18;20.13;99645.31;7764918;32;39105;-75
2022/07/10 15:13:34;;;;;;;4.78;0.77;;;;;;;25.63;20.28;99633.78;7766180;32;40078;-76
2022/07/10 15:17:50;;;;;;;2.42;0.70;;;;;;;25.78;19.74;99626.41;7765434;32;38024;-75
2022/07/10 15:22:06;;;;;;;1.37;0.40;;;;;;;25.98;19.54;99627.09;7766127;32;37879;-75
2022/07/10 15:26:22;;;;;;;1.90;0.43;;;;;;;25.76;19.91;99637.94;7766105;32;39312;-74
2022/07/10 15:30:39;;;;;;;6.47;0.65;;;;;;;25.69;19.76;99646.25;7765945;32;40795;-75
2022/07/10 15:34:55;;;;;;;3.20;0.55;;;;;;;25.27;20.48;99655.59;7765717;32;38722;-76
2022/07/10 15:39:13;;;;;;;1.48;0.45;;;;;;;25.36;20.51;99656.13;7765959;32;38369;-75
2022/07/10 15:43:29;;;;;;;3.25;0.88;;;;;;;24.68;21.26;99653.00;7765774;32;40087;-77
2022/07/10 15:47:45;;;;;;;2.33;0.80;;;;;;;24.43;22.07;99668.41;7742432;32;39642;-76
2022/07/10 15:52:02;;;;;;;2.20;0.60;;;;;;;24.37;22.50;99660.34;7738652;32;35838;-76
2022/07/10 15:56:18;;;;;;;4.90;0.50;;;;;;;24.89;22.18;99652.56;7737384;32;38463;-76
2022/07/10 16:00:34;;;;;;;0.82;0.40;;;;;;;25.10;22.27;99665.25;7737772;32;40185;-77
2022/07/10 16:04:50;;;;;;;3.78;0.73;;;;;;;25.55;21.20;99654.41;7737781;32;40802;-76
2022/07/10 16:09:06;;;;;;;1.00;0.40;;;;;;;24.52;22.40;99666.97;7757197;32;39452;-76
2022/07/10 16:13:30;;;;;;;3.10;0.62;;;;;;;24.47;23.09;99672.84;7738633;32;37871;-76
2022/07/10 16:17:46;;;;;;;3.60;0.52;;;;;;;24.43;23.60;99679.56;7738664;32;39236;-75
2022/07/10 16:22:03;;;;;;;2.08;0.70;;;;;;;24.36;24.22;99685.78;7738468;32;40890;-77
2022/07/10 16:26:19;;;;;;;1.60;0.68;;;;;;;24.70;24.21;99683.28;7738353;32;38734;-75
2022/07/10 16:30:36;;;;;;;3.62;0.62;;;;;;;24.35;24.05;99704.50;7738531;32;37107;-75
2022/07/10 16:34:52;;;;;;;2.95;1.17;;;;;;;24.48;24.08;99707.91;7738266;32;39124;-75
2022/07/10 16:39:09;;;;;;;7.12;1.10;;;;;;;24.57;23.43;99704.94;7738140;32;40661;-74
2022/07/10 16:43:32;;;;;;;2.20;0.90;;;;;;;25.00;23.43;99702.94;7765301;32;37959;-75
2022/07/10 16:47:48;;;;;;;3.28;0.88;;;;;;;25.04;22.90;99701.03;7765233;32;37077;-76
2022/07/10 16:52:04;;;;;;;0.88;0.50;;;;;;;25.18;22.68;99711.63;7765251;32;39426;-76
2022/07/10 16:56:22;;;;;;;1.37;0.80;;;;;;;25.05;23.08;99710.19;7764921;32;40743;-76
2022/07/10 17:00:38;;;;;;;1.55;0.68;;;;;;;24.72;23.15;99715.19;7764920;32;37618;-77
2022/07/10 17:04:54;;;;;;;1.65;0.65;;;;;;;24.68;23.65;99721.84;7750740;32;37282;-77
2022/07/10 17:09:10;;;;;;;3.47;0.68;;;;;;;24.47;23.68;99725.00;7738153;32;39497;-76
2022/07/10 17:13:31;;;;;;;3.25;0.50;;;;;;;24.21;23.46;99723.66;7737778;32;40878;-76
2022/07/10 17:17:48;;;;;;;6.12;0.50;;;;;;;23.77;22.79;99718.31;7737681;32;38725;-76
2022/07/10 17:22:05;;;;;;;3.30;0.77;;;;;;;23.69;23.02;99736.81;7737505;32;37840;-76
2022/07/10 17:26:22;;;;;;;1.75;0.70;;;;;;;23.32;23.93;99733.53;7737672;32;39685;-76
2022/07/10 17:30:38;;;;;;;0.82;0.40;;;;;;;23.44;24.15;99736.22;7737542;32;40837;-77
2022/07/10 17:34:54;;;;;;;3.15;0.60;;;;;;;23.18;24.58;99745.91;7749797;32;38799;-80
2022/07/10 17:39:11;;;;;;;4.07;0.73;;;;;;;22.67;25.45;99748.50;7763182;32;36997;-76
2022/07/10 17:43:27;;;;;;;2.80;0.70;;;;;;;22.30;26.15;99751.41;7764354;32;39677;-78
2022/07/10 17:47:44;;;;;;;3.15;0.77;;;;;;;22.04;26.78;99754.56;7750403;32;40682;-75
2022/07/10 17:52:01;;;;;;;3.58;0.80;;;;;;;21.97;27.36;99769.03;7755464;32;37837;-76
2022/07/10 17:56:18;;;;;;;1.15;0.60;;;;;;;21.47;28.34;99782.13;7743374;32;36830;-81
2022/07/10 18:00:34;;;;;;;4.85;1.10;;;;;;;21.52;29.26;99789.38;7764748;32;40141;-80
2022/07/10 18:04:50;;;;;;;1.95;0.60;;;;;;;21.55;29.31;99795.06;7763752;32;40819;-79
2022/07/10 18:09:07;;;;;;;2.35;0.82;;;;;;;21.46;30.05;99796.31;7753054;32;38607;-78
2022/07/10 18:13:31;;;;;;;2.58;0.90;;;;;;;21.06;30.56;99799.66;7736568;32;37241;-78
2022/07/10 18:17:48;;;;;;;1.52;0.90;;;;;;;20.90;30.28;99808.63;7736700;32;39070;-79
2022/07/10 18:22:05;;;;;;;2.30;0.80;;;;;;;20.95;30.29;99813.16;7736187;32;40941;-78
2022/07/10 18:26:21;;;;;;;2.90;1.00;;;;;;;20.74;30.94;99827.84;7736082;32;37951;-78
2022/07/10 18:30:37;;;;;;;1.77;0.98;;;;;;;20.77;30.33;99826.37;7736136;32;37322;-75
2022/07/10 18:34:53;;;;;;;1.00;0.80;;;;;;;20.55;31.14;99842.13;7758754;32;39504;-75
2022/07/10 18:39:09;;;;;;;1.58;0.68;;;;;;;20.19;31.26;99838.00;7766819;32;39947;-75
2022/07/10 18:43:33;;;;;;;2.75;1.00;;;;;;;20.48;30.87;99841.06;7762478;32;38743;-74
2022/07/10 18:47:49;;;;;;;5.05;1.00;;;;;;;20.54;30.75;99846.06;7739906;32;36713;-75
2022/07/10 18:52:06;;;;;;;2.03;0.65;;;;;;;20.34;31.03;99852.41;7766329;32;39043;-76
2022/07/10 18:56:28;;;;;;;2.07;1.00;;;;;;;20.15;31.09;99855.63;7772364;32;40872;-75
2022/07/10 19:00:44;;;;;;;0.90;0.70;;;;;;;20.14;31.21;99857.56;7766478;32;37970;-75
2022/07/10 19:05:01;;;;;;;5.43;1.10;;;;;;;20.03;31.25;99875.69;7766375;32;37035;-75
2022/07/10 19:09:17;;;;;;;2.60;0.95;;;;;;;19.68;32.08;99871.09;7741006;32;39393;-74
2022/07/10 19:13:34;;;;;;;2.55;0.98;;;;;;;19.60;32.69;99871.13;7738156;32;39697;-75
2022/07/10 19:17:50;;;;;;;2.62;0.70;;;;;;;19.48;32.97;99889.19;7739147;32;38689;-74
2022/07/10 19:22:06;;;;;;;1.65;0.60;;;;;;;19.77;32.63;99890.47;7739094;32;37824;-74
2022/07/10 19:26:24;;;;;;;1.67;0.85;;;;;;;19.61;33.01;99904.00;7746103;32;39314;-75
2022/07/10 19:30:41;;;;;;;2.33;0.98;;;;;;;19.67;33.14;99919.25;7755643;32;40087;-77
2022/07/10 19:34:57;;;;;;;1.45;0.75;;;;;;;19.28;34.28;99912.00;7761121;32;38714;-76
2022/07/10 19:39:16;;;;;;;0.73;0.60;;;;;;;19.36;33.90;99918.69;7767313;32;37596;-76
2022/07/10 19:43:33;;;;;;;0.70;0.70;;;;;;;19.10;34.28;99917.56;7781341;32;39977;-75
2022/07/10 19:47:55;;;;;;;1.85;0.98;;;;;;;19.17;34.45;99927.31;7783060;32;39518;-76
2022/07/10 19:52:11;;;;;;;1.70;0.62;;;;;;;19.04;34.67;99923.56;7765784;32;38475;-76
2022/07/10 19:56:27;;;;;;;1.90;0.62;;;;;;;18.91;34.82;99931.69;7752305;32;37779;-76
2022/07/10 20:00:43;;;;;;;1.70;0.80;;;;;;;18.71;35.16;99930.38;7738837;32;38990;-76
2022/07/10 20:05:00;;;;;;;0.60;0.60;;;;;;;18.82;34.97;99939.19;7738679;32;39602;-76
2022/07/10 20:09:16;;;;;;;1.58;0.82;;;;;;;19.01;34.95;99930.56;7738760;32;37908;-76
2022/07/10 20:13:32;;;;;;;1.83;0.73;;;;;;;19.10;34.63;99934.13;7738699;32;37295;-74
2022/07/10 20:17:48;;;;;;;2.37;1.12;;;;;;;18.93;35.14;99931.38;7738850;32;39575;-76
2022/07/10 20:22:05;;;;;;;2.33;0.77;;;;;;;18.74;35.95;99940.75;7738383;32;39877;-76
2022/07/10 20:26:21;;;;;;;1.73;0.80;;;;;;;18.74;36.07;99937.97;7738312;32;37970;-76